Time;durP1;ratioP1;P1;durP2;ratioP2;P2;SDS_P1;SDS_P2;PMS_P1;PMS_P2;Temp;Humidity;BMP_temperature;BMP_pressure;BME280_temperature;BME280_humidity;BME280_pressure;Samples;Min_cycle;Max_cycle;Signal;HPM_P1;HPM_P2
2022/11/16 00:02:18;;;;;;;0.95;0.57;;;9.20;99.90;;;;;;5010650;28;20463;-85
2022/11/16 00:04:45;;;;;;;0.63;0.30;;;9.20;99.90;;;;;;5007799;28;20057;-85
2022/11/16 00:07:12;;;;;;;1.30;0.32;;;9.20;99.90;;;;;;4994453;28;20049;-84
2022/11/16 00:09:39;;;;;;;0.70;0.30;;;9.20;99.90;;;;;;4994922;28;20061;-86
2022/11/16 00:12:08;;;;;;;0.30;0.30;;;9.10;99.90;;;;;;5007416;28;20084;-85
2022/11/16 00:14:35;;;;;;;0.75;0.40;;;9.10;99.90;;;;;;4995675;28;20479;-85
2022/11/16 00:17:02;;;;;;;0.57;0.40;;;9.10;99.90;;;;;;5025398;28;20053;-85
2022/11/16 00:19:30;;;;;;;1.50;0.30;;;9.00;99.90;;;;;;4994770;28;20060;-85
2022/11/16 00:21:57;;;;;;;0.70;0.60;;;9.00;99.90;;;;;;4994688;28;20056;-84
2022/11/16 00:24:24;;;;;;;0.38;0.20;;;9.00;99.90;;;;;;4999956;28;20140;-85
2022/11/16 00:26:52;;;;;;;0.47;0.32;;;8.90;99.90;;;;;;5028200;28;20063;-85
2022/11/16 00:29:23;;;;;;;0.75;0.30;;;8.90;99.90;;;;;;4994165;28;20114;-85
2022/11/16 00:31:51;;;;;;;0.22;0.22;;;8.90;99.90;;;;;;5012055;28;20140;-85
2022/11/16 00:34:18;;;;;;;0.30;0.30;;;8.90;99.90;;;;;;4998405;28;20122;-85
2022/11/16 00:36:45;;;;;;;0.38;0.22;;;8.90;99.90;;;;;;5013850;28;20383;-84
2022/11/16 00:39:12;;;;;;;0.20;0.20;;;9.00;99.90;;;;;;5014053;28;20048;-84
2022/11/16 00:41:40;;;;;;;0.85;0.30;;;9.00;99.90;;;;;;5021229;28;20053;-85
2022/11/16 00:44:07;;;;;;;0.85;0.30;;;9.10;99.90;;;;;;4997411;28;20140;-85
2022/11/16 00:46:34;;;;;;;0.43;0.28;;;9.20;99.90;;;;;;5012981;28;20075;-85
2022/11/16 00:49:01;;;;;;;1.83;0.30;;;9.20;99.90;;;;;;5016055;28;20145;-87
2022/11/16 00:51:28;;;;;;;0.45;0.28;;;9.20;99.90;;;;;;5006199;28;20275;-87
2022/11/16 00:53:55;;;;;;;0.25;0.25;;;9.10;99.90;;;;;;5000745;28;20313;-88
2022/11/16 00:56:22;;;;;;;0.57;0.30;;;9.10;99.90;;;;;;5015388;28;20629;-89
2022/11/16 00:58:49;;;;;;;0.32;0.30;;;9.00;99.90;;;;;;5016885;28;20048;-87
2022/11/16 01:01:16;;;;;;;0.30;0.10;;;9.00;99.90;;;;;;5017311;28;20052;-87
2022/11/16 01:03:44;;;;;;;0.15;0.10;;;8.90;99.90;;;;;;5001682;28;20060;-88
2022/11/16 01:06:12;;;;;;;0.20;0.20;;;8.80;99.90;;;;;;5001227;28;20088;-88
2022/11/16 01:08:40;;;;;;;0.45;0.30;;;8.80;99.90;;;;;;5000381;28;20061;-88
2022/11/16 01:13:53;;;;;;;0.32;0.15;;;8.60;99.90;;;;;;5016688;28;20103;-89
2022/11/16 01:16:20;;;;;;;0.22;0.22;;;8.50;99.90;;;;;;5014207;28;20049;-87
2022/11/16 01:18:48;;;;;;;0.10;0.10;;;8.50;99.90;;;;;;4997443;28;20045;-88
2022/11/16 01:21:16;;;;;;;0.20;0.20;;;8.40;99.90;;;;;;5015621;28;20106;-88
2022/11/16 01:23:43;;;;;;;0.35;0.20;;;8.40;99.90;;;;;;5014921;28;20484;-88
2022/11/16 01:26:10;;;;;;;0.10;0.10;;;8.30;99.90;;;;;;5016594;28;20045;-86
2022/11/16 01:28:37;;;;;;;0.20;0.20;;;8.30;99.90;;;;;;5016087;28;20132;-88
2022/11/16 01:31:04;;;;;;;0.10;0.10;;;8.20;99.90;;;;;;5015940;28;20049;-88
2022/11/16 01:33:31;;;;;;;0.20;0.20;;;8.10;99.90;;;;;;4996203;28;20536;-88
2022/11/16 01:35:58;;;;;;;0.10;0.10;;;8.10;99.90;;;;;;5012566;28;20145;-88
2022/11/16 01:38:25;;;;;;;0.20;0.20;;;8.10;99.90;;;;;;5014185;28;20137;-88
2022/11/16 01:40:55;;;;;;;0.30;0.30;;;8.00;99.90;;;;;;5016548;28;20462;-87
2022/11/16 01:43:23;;;;;;;0.10;0.10;;;8.00;99.90;;;;;;5000589;28;20062;-88
2022/11/16 01:45:50;;;;;;;0.60;0.20;;;8.00;99.90;;;;;;5015827;28;20147;-87
2022/11/16 01:48:23;;;;;;;0.20;0.20;;;8.00;99.90;;;;;;5016541;28;20048;-87
2022/11/16 01:50:50;;;;;;;0.43;0.20;;;8.00;99.90;;;;;;5016433;28;20219;-87
2022/11/16 01:53:17;;;;;;;0.20;0.20;;;8.00;99.90;;;;;;5012230;28;20072;-86
2022/11/16 01:55:44;;;;;;;1.02;0.30;;;8.00;99.90;;;;;;5000293;28;20063;-87
2022/11/16 01:58:14;;;;;;;0.20;0.20;;;8.00;99.90;;;;;;4999870;28;20091;-86
2022/11/16 02:00:43;;;;;;;1.70;0.20;;;8.10;99.90;;;;;;5000704;28;20140;-86
2022/11/16 02:03:10;;;;;;;0.85;0.20;;;8.10;99.90;;;;;;4998980;28;20060;-87
2022/11/16 02:05:53;;;;;;;0.10;0.10;;;8.10;99.90;;;;;;4979972;28;20064;-86
2022/11/16 02:11:55;;;;;;;0.20;0.20;;;8.30;99.90;;;;;;5037989;28;20045;-88
2022/11/16 02:14:36;;;;;;;1.48;0.30;;;8.40;99.90;;;;;;5017979;28;20153;-88
2022/11/16 02:17:20;;;;;;;0.32;0.20;;;8.50;99.90;;;;;;5031384;28;20056;-87
2022/11/16 02:19:50;;;;;;;;;;;8.50;99.90;;;;;;5002250;28;20243;-88
2022/11/16 02:22:45;;;;;;;0.20;0.20;;;8.50;99.90;;;;;;5034209;28;19943;-88
2022/11/16 02:25:16;;;;;;;0.20;0.20;;;8.50;99.90;;;;;;5017855;28;20496;-88
2022/11/16 02:27:46;;;;;;;0.13;0.13;;;8.50;99.90;;;;;;5001649;28;20048;-87
2022/11/16 02:30:12;;;;;;;0.60;0.30;;;8.50;99.90;;;;;;5033111;28;20118;-87
2022/11/16 02:32:50;;;;;;;0.20;0.20;;;8.50;99.90;;;;;;4998490;28;20057;-87
2022/11/16 02:35:20;;;;;;;0.40;0.20;;;8.60;99.90;;;;;;5033931;28;20464;-87
2022/11/16 02:37:51;;;;;;;0.90;0.20;;;8.70;99.90;;;;;;5017976;28;20080;-87
2022/11/16 02:40:19;;;;;;;0.13;0.13;;;8.80;99.90;;;;;;5017341;28;20053;-88
2022/11/16 02:42:53;;;;;;;0.35;0.30;;;8.80;99.90;;;;;;4998930;28;20053;-88
2022/11/16 02:45:25;;;;;;;0.93;0.20;;;8.80;99.90;;;;;;5000932;28;20053;-89
2022/11/16 02:47:54;;;;;;;0.82;0.40;;;8.90;99.90;;;;;;5003628;28;20079;-88
2022/11/16 02:50:22;;;;;;;0.10;0.10;;;8.90;99.90;;;;;;5003330;28;20420;-89
2022/11/16 02:52:51;;;;;;;0.52;0.30;;;8.90;99.90;;;;;;5002823;28;20121;-87
2022/11/16 02:55:18;;;;;;;0.35;0.20;;;8.90;99.90;;;;;;5003391;28;20052;-87
2022/11/16 02:57:52;;;;;;;0.32;0.30;;;8.90;99.90;;;;;;5002788;28;20071;-88
2022/11/16 03:00:21;;;;;;;0.40;0.20;;;8.80;99.90;;;;;;5003567;28;20139;-88
2022/11/16 03:03:12;;;;;;;0.30;0.30;;;8.80;99.90;;;;;;5003059;28;20079;-88
2022/11/16 03:05:51;;;;;;;0.63;0.20;;;8.70;99.90;;;;;;5036187;28;20059;-88
2022/11/16 03:08:49;;;;;;;0.20;0.20;;;8.60;99.90;;;;;;5002903;28;20602;-88
2022/11/16 03:14:04;;;;;;;0.20;0.20;;;8.50;99.90;;;;;;5024288;28;20053;-88
2022/11/16 03:16:39;;;;;;;0.35;0.30;;;8.50;99.90;;;;;;5002913;28;20095;-89
2022/11/16 03:19:09;;;;;;;0.93;0.20;;;8.50;99.90;;;;;;5003105;28;20049;-89
2022/11/16 03:21:39;;;;;;;0.28;0.20;;;8.40;99.90;;;;;;5002177;28;20463;-88
2022/11/16 03:24:06;;;;;;;0.10;0.10;;;8.40;99.90;;;;;;5002789;28;20056;-87
2022/11/16 03:26:42;;;;;;;0.15;0.10;;;8.40;99.90;;;;;;5003153;28;20148;-88
2022/11/16 03:29:29;;;;;;;0.20;0.20;;;8.50;99.90;;;;;;5003438;28;20148;-87
2022/11/16 03:32:03;;;;;;;0.20;0.20;;;8.50;99.90;;;;;;4990451;28;20063;-87
2022/11/16 03:34:30;;;;;;;;;;;8.50;99.90;;;;;;4983594;28;20045;-87
2022/11/16 03:36:57;;;;;;;0.85;0.10;;;8.60;99.90;;;;;;5015485;28;19952;-88
2022/11/16 03:39:28;;;;;;;0.20;0.20;;;8.60;99.90;;;;;;4982669;28;20041;-87
2022/11/16 03:41:55;;;;;;;0.10;0.10;;;8.60;99.90;;;;;;4983537;28;20140;-85
2022/11/16 03:44:22;;;;;;;0.20;0.20;;;8.60;99.90;;;;;;4982552;28;20045;-87
2022/11/16 03:46:49;;;;;;;0.10;0.10;;;8.70;99.90;;;;;;4982223;28;20054;-86
2022/11/16 03:49:19;;;;;;;1.08;0.30;;;8.70;99.90;;;;;;4981534;28;20451;-87
2022/11/16 03:51:46;;;;;;;0.15;0.15;;;8.70;99.90;;;;;;4982959;28;20091;-88
2022/11/16 03:54:13;;;;;;;0.20;0.20;;;8.70;99.90;;;;;;4974613;28;20160;-88
2022/11/16 03:56:41;;;;;;;0.20;0.20;;;8.70;99.90;;;;;;4963791;28;20089;-88
2022/11/16 03:59:08;;;;;;;0.30;0.30;;;8.80;99.90;;;;;;4963817;28;20046;-86
2022/11/16 04:01:35;;;;;;;0.20;0.20;;;8.80;99.90;;;;;;4963456;28;20136;-87
2022/11/16 04:24:10;;;;;;;0.80;0.25;;;8.80;99.90;;;;;;4969108;28;20511;-87
2022/11/16 04:26:13;;;;;;;0.10;0.10;;;8.90;99.90;;;;;;5008189;28;20102;-89
2022/11/16 04:28:40;;;;;;;0.25;0.13;;;8.80;99.90;;;;;;4986289;28;20140;-89
2022/11/16 04:39:24;;;;;;;0.47;0.17;;;8.80;99.90;;;;;;5035969;28;20500;-90
2022/11/16 04:47:22;;;;;;;0.25;0.13;;;8.80;99.90;;;;;;5035525;28;20076;-89
2022/11/16 04:49:48;;;;;;;0.20;0.20;;;8.80;99.90;;;;;;5018967;28;20244;-88
2022/11/16 04:52:15;;;;;;;0.10;0.10;;;8.80;99.90;;;;;;5018338;28;20518;-89
2022/11/16 04:54:42;;;;;;;0.22;0.22;;;8.80;99.90;;;;;;5015373;28;20050;-88
2022/11/16 04:57:09;;;;;;;0.20;0.20;;;8.80;99.90;;;;;;5018308;28;20166;-89
2022/11/16 04:59:36;;;;;;;0.20;0.20;;;8.70;99.90;;;;;;5016435;28;20046;-89
2022/11/16 05:02:09;;;;;;;0.35;0.20;;;8.70;99.90;;;;;;5015638;28;20473;-89
2022/11/16 05:04:40;;;;;;;0.30;0.20;;;8.70;99.90;;;;;;5018400;28;20113;-88
2022/11/16 05:07:10;;;;;;;0.10;0.10;;;8.70;99.90;;;;;;5002525;28;20143;-88
2022/11/16 05:09:42;;;;;;;0.20;0.20;;;8.70;99.90;;;;;;5001192;28;20045;-89
2022/11/16 05:12:10;;;;;;;0.20;0.20;;;8.70;99.90;;;;;;5018140;28;20500;-86
2022/11/16 05:14:37;;;;;;;0.80;0.20;;;8.60;99.90;;;;;;5000579;28;20045;-88
2022/11/16 05:17:04;;;;;;;0.10;0.10;;;8.60;99.90;;;;;;4984910;28;20145;-87
2022/11/16 05:22:16;;;;;;;0.38;0.20;;;8.60;99.90;;;;;;5032768;28;20056;-86
2022/11/16 05:24:43;;;;;;;0.20;0.20;;;8.60;99.90;;;;;;4979412;28;20140;-88
2022/11/16 05:27:12;;;;;;;0.30;0.30;;;8.50;99.90;;;;;;5015941;28;20132;-89
2022/11/16 05:29:39;;;;;;;0.38;0.28;;;8.50;99.90;;;;;;4999896;28;20109;-89
2022/11/16 05:32:08;;;;;;;0.20;0.10;;;8.40;99.90;;;;;;5009872;28;20042;-87
2022/11/16 05:34:35;;;;;;;1.27;0.13;;;8.40;99.90;;;;;;5031291;28;20578;-89
2022/11/16 05:37:02;;;;;;;0.47;0.20;;;8.40;99.90;;;;;;5008142;28;20055;-89
2022/11/16 05:39:29;;;;;;;0.20;0.20;;;8.30;99.90;;;;;;5026770;28;20057;-89
2022/11/16 05:41:56;;;;;;;0.20;0.20;;;8.30;99.90;;;;;;5002717;28;20049;-87
2022/11/16 05:44:23;;;;;;;0.65;0.20;;;8.30;99.90;;;;;;4999306;28;20089;-85
2022/11/16 05:46:50;;;;;;;0.10;0.10;;;8.30;99.90;;;;;;5015818;28;20080;-86
2022/11/16 05:49:17;;;;;;;0.20;0.20;;;8.30;99.90;;;;;;5008778;28;20121;-85
2022/11/16 05:51:44;;;;;;;0.20;0.20;;;8.30;99.90;;;;;;5018493;28;20063;-86
2022/11/16 05:54:16;;;;;;;0.20;0.20;;;8.30;99.90;;;;;;5021216;28;20168;-84
2022/11/16 05:56:43;;;;;;;0.80;0.20;;;8.30;99.90;;;;;;5010933;28;20072;-84
2022/11/16 05:59:14;;;;;;;0.15;0.13;;;8.30;99.90;;;;;;5010936;28;20048;-83
2022/11/16 06:01:42;;;;;;;0.40;0.30;;;8.30;99.90;;;;;;5028200;28;20119;-85
2022/11/16 06:04:09;;;;;;;0.40;0.40;;;8.40;99.90;;;;;;4991245;28;20049;-84
2022/11/16 06:06:36;;;;;;;0.40;0.30;;;8.40;99.90;;;;;;5043394;28;20151;-87
2022/11/16 06:09:04;;;;;;;1.50;0.50;;;8.40;99.90;;;;;;5000322;28;20111;-88
2022/11/16 06:11:31;;;;;;;0.40;0.40;;;8.50;99.90;;;;;;4999427;28;20080;-89
2022/11/16 06:14:02;;;;;;;0.52;0.50;;;8.50;99.90;;;;;;5004623;28;20139;-88
2022/11/16 06:16:29;;;;;;;0.30;0.30;;;8.50;99.90;;;;;;5008000;28;20048;-90
2022/11/16 06:18:56;;;;;;;0.32;0.30;;;8.60;99.90;;;;;;5018184;28;20148;-89
2022/11/16 06:21:22;;;;;;;0.35;0.25;;;8.60;99.90;;;;;;4999507;28;20080;-88
2022/11/16 06:23:49;;;;;;;0.32;0.32;;;8.70;99.90;;;;;;5030882;28;20048;-89
2022/11/16 06:26:16;;;;;;;0.38;0.38;;;8.70;99.90;;;;;;5026788;28;20087;-88
2022/11/16 06:28:43;;;;;;;0.57;0.40;;;8.70;99.90;;;;;;5000302;28;20140;-88
2022/11/16 06:31:10;;;;;;;0.52;0.30;;;8.70;99.90;;;;;;5015386;28;20049;-88
2022/11/16 06:33:37;;;;;;;0.45;0.20;;;8.80;99.90;;;;;;5005680;28;20052;-87
2022/11/16 06:36:05;;;;;;;0.30;0.20;;;8.80;99.90;;;;;;5003037;28;20106;-90
2022/11/16 06:38:32;;;;;;;0.25;0.10;;;8.80;99.90;;;;;;5003877;28;20087;-85
2022/11/16 06:41:00;;;;;;;0.20;0.17;;;8.80;99.90;;;;;;5016133;28;20049;-85
2022/11/16 06:43:27;;;;;;;0.43;0.30;;;8.80;99.90;;;;;;5015793;28;20045;-87
2022/11/16 06:45:55;;;;;;;0.30;0.30;;;8.80;99.90;;;;;;5030634;28;20051;-85
2022/11/16 06:48:22;;;;;;;0.20;0.20;;;8.90;99.90;;;;;;5029985;28;20253;-85
2022/11/16 06:50:49;;;;;;;0.32;0.30;;;8.90;99.90;;;;;;4996196;28;20132;-86
2022/11/16 06:53:16;;;;;;;0.32;0.20;;;8.90;99.90;;;;;;5010357;28;20096;-85
2022/11/16 06:55:43;;;;;;;0.15;0.15;;;8.90;99.90;;;;;;5019797;28;20048;-85
2022/11/16 06:58:25;;;;;;;0.40;0.40;;;8.90;99.90;;;;;;5019377;28;20045;-86
2022/11/16 07:00:52;;;;;;;0.88;0.40;;;8.90;99.90;;;;;;5013903;28;20094;-87
2022/11/16 07:03:19;;;;;;;0.70;0.47;;;8.90;99.90;;;;;;4996874;28;20052;-88
2022/11/16 07:05:46;;;;;;;0.32;0.30;;;9.00;99.90;;;;;;4997924;28;20049;-85
2022/11/16 07:08:14;;;;;;;0.47;0.20;;;9.00;99.90;;;;;;4999024;28;20057;-86
2022/11/16 07:10:41;;;;;;;0.57;0.20;;;9.00;99.90;;;;;;4995127;28;20436;-85
2022/11/16 07:13:08;;;;;;;0.20;0.20;;;9.00;99.90;;;;;;5031718;28;20118;-87
2022/11/16 07:15:35;;;;;;;0.40;0.25;;;9.00;99.90;;;;;;4998685;28;20057;-86
2022/11/16 07:18:05;;;;;;;0.20;0.20;;;9.00;99.90;;;;;;4998489;28;20053;-87
2022/11/16 07:20:36;;;;;;;0.30;0.30;;;9.00;99.90;;;;;;4999403;28;20057;-87
2022/11/16 07:23:03;;;;;;;0.20;0.20;;;9.00;99.90;;;;;;4998930;28;20634;-87
2022/11/16 07:25:31;;;;;;;0.30;0.30;;;9.00;99.90;;;;;;4999067;28;20053;-86
2022/11/16 07:27:58;;;;;;;1.27;0.30;;;8.90;99.90;;;;;;4995185;28;20088;-87
2022/11/16 07:30:25;;;;;;;0.30;0.30;;;8.90;99.90;;;;;;4975996;28;20140;-86
2022/11/16 07:32:57;;;;;;;0.57;0.30;;;8.90;99.90;;;;;;4988160;28;20053;-86
2022/11/16 07:35:24;;;;;;;0.50;0.20;;;8.90;99.90;;;;;;5010992;28;20070;-86
2022/11/16 07:37:51;;;;;;;0.20;0.20;;;8.90;99.90;;;;;;4996964;28;20122;-85
2022/11/16 07:40:19;;;;;;;0.30;0.30;;;8.90;99.90;;;;;;5015028;28;20055;-86
2022/11/16 07:42:46;;;;;;;0.20;0.20;;;9.00;99.90;;;;;;5000162;28;20075;-89
2022/11/16 07:45:13;;;;;;;0.10;0.10;;;9.00;99.90;;;;;;5004076;28;20067;-90
2022/11/16 07:47:40;;;;;;;1.00;0.20;;;9.00;99.90;;;;;;5004810;28;20583;-89
2022/11/16 07:50:07;;;;;;;0.40;0.30;;;9.00;99.90;;;;;;5019203;28;20053;-91
2022/11/16 07:52:34;;;;;;;0.30;0.30;;;9.00;99.90;;;;;;5007516;28;20107;-89
2022/11/16 07:55:01;;;;;;;0.20;0.20;;;9.00;99.90;;;;;;5003549;28;20091;-94
2022/11/16 07:57:28;;;;;;;0.10;0.10;;;9.00;99.90;;;;;;5003559;28;20072;-91
2022/11/16 07:59:55;;;;;;;0.55;0.32;;;9.00;99.90;;;;;;5001381;28;20129;-90
2022/11/16 08:02:22;;;;;;;0.43;0.20;;;9.00;99.90;;;;;;5020114;28;20131;-89
2022/11/16 08:04:49;;;;;;;0.47;0.20;;;9.00;99.90;;;;;;5051281;28;20045;-91
2022/11/16 08:07:17;;;;;;;0.25;0.25;;;9.00;99.90;;;;;;4990483;28;20057;-91
2022/11/16 08:09:44;;;;;;;0.32;0.30;;;9.10;99.90;;;;;;5010085;28;20073;-92
2022/11/16 08:12:12;;;;;;;0.75;0.30;;;9.10;99.90;;;;;;5010977;28;20049;-90
2022/11/16 08:14:40;;;;;;;0.30;0.30;;;9.10;99.90;;;;;;5004140;28;20404;-91
2022/11/16 08:17:07;;;;;;;0.38;0.20;;;9.10;99.90;;;;;;5020930;28;20051;-89
2022/11/16 08:19:35;;;;;;;0.20;0.20;;;9.10;99.90;;;;;;5025992;28;20149;-90
2022/11/16 08:22:02;;;;;;;0.30;0.30;;;9.20;99.90;;;;;;5012352;28;20136;-90
2022/11/16 08:24:30;;;;;;;0.47;0.40;;;9.20;99.90;;;;;;4994836;28;20087;-89
2022/11/16 08:26:57;;;;;;;0.43;0.30;;;9.20;99.90;;;;;;5012911;28;20179;-92
2022/11/16 08:29:25;;;;;;;0.63;0.40;;;9.20;99.90;;;;;;5039770;28;20049;-92
2022/11/16 08:31:52;;;;;;;0.60;0.40;;;9.20;99.90;;;;;;5037162;28;20116;-89
2022/11/16 08:34:21;;;;;;;0.85;0.45;;;9.20;99.90;;;;;;5022531;28;20050;-95
2022/11/16 08:36:54;;;;;;;0.63;0.30;;;9.30;99.90;;;;;;5008723;28;20054;-94
2022/11/16 08:39:30;;;;;;;0.20;0.20;;;9.30;99.90;;;;;;5025562;28;20461;-94
2022/11/16 08:41:58;;;;;;;0.40;0.40;;;9.40;99.90;;;;;;5013430;28;20459;-94
2022/11/16 08:44:27;;;;;;;0.25;0.25;;;9.40;99.90;;;;;;5007077;28;20045;-95
2022/11/16 08:46:54;;;;;;;0.20;0.20;;;9.50;99.90;;;;;;5006730;28;20057;-94
2022/11/16 08:49:22;;;;;;;0.40;0.30;;;9.50;99.90;;;;;;4990554;28;20119;-94
2022/11/16 08:51:49;;;;;;;0.43;0.30;;;9.60;99.90;;;;;;4995004;28;20059;-92
2022/11/16 08:54:16;;;;;;;0.30;0.30;;;9.60;99.90;;;;;;5024085;28;20053;-90
2022/11/16 08:56:43;;;;;;;0.22;0.20;;;9.60;99.90;;;;;;5005393;28;20055;-82
2022/11/16 08:59:11;;;;;;;0.20;0.20;;;9.70;99.90;;;;;;5019799;28;20144;-81
2022/11/16 09:01:38;;;;;;;0.20;0.20;;;9.70;99.90;;;;;;4977805;28;20134;-80
2022/11/16 09:04:05;;;;;;;0.20;0.20;;;9.80;99.90;;;;;;5010895;28;20045;-80
2022/11/16 09:06:32;;;;;;;0.32;0.10;;;9.80;99.90;;;;;;5047307;28;20101;-80
2022/11/16 09:08:59;;;;;;;0.30;0.30;;;9.80;99.90;;;;;;5006343;28;20151;-81
2022/11/16 09:11:26;;;;;;;0.30;0.20;;;9.90;99.90;;;;;;4995491;28;20064;-81
2022/11/16 09:13:53;;;;;;;0.25;0.20;;;9.90;99.90;;;;;;5028634;28;20069;-81
2022/11/16 09:16:21;;;;;;;0.20;0.20;;;9.90;99.90;;;;;;5013292;28;20488;-81
2022/11/16 09:18:51;;;;;;;0.10;0.10;;;9.90;99.90;;;;;;5006617;28;20145;-80
2022/11/16 09:21:19;;;;;;;0.22;0.22;;;10.00;99.90;;;;;;5004493;28;20134;-91
2022/11/16 09:23:46;;;;;;;0.20;0.20;;;10.00;99.90;;;;;;4998384;28;20476;-88
2022/11/16 09:26:15;;;;;;;0.32;0.17;;;10.10;99.90;;;;;;5002684;28;20083;-88
2022/11/16 09:28:42;;;;;;;0.40;0.40;;;10.10;99.90;;;;;;5003911;28;20159;-86
2022/11/16 09:31:09;;;;;;;0.25;0.25;;;10.20;99.90;;;;;;5029361;28;20071;-85
2022/11/16 09:33:36;;;;;;;0.30;0.22;;;10.30;99.90;;;;;;5011518;28;20677;-88
2022/11/16 09:36:07;;;;;;;0.32;0.30;;;10.40;99.90;;;;;;4997038;28;20269;-86
2022/11/16 09:38:43;;;;;;;0.20;0.20;;;10.50;99.90;;;;;;4998398;28;20069;-84
2022/11/16 09:41:43;;;;;;;0.35;0.30;;;10.60;99.90;;;;;;5024105;28;20060;-85
2022/11/16 09:44:34;;;;;;;0.40;0.30;;;10.70;99.90;;;;;;5032558;28;20095;-84
2022/11/16 09:47:01;;;;;;;0.35;0.30;;;10.70;99.90;;;;;;5029566;28;20056;-86
2022/11/16 09:49:36;;;;;;;0.82;0.47;;;10.70;99.90;;;;;;4991382;28;20049;-83
2022/11/16 09:52:07;;;;;;;0.50;0.40;;;10.70;99.90;;;;;;5003611;28;20604;-85
2022/11/16 09:54:35;;;;;;;0.20;0.20;;;10.60;99.90;;;;;;4994497;28;20752;-86
2022/11/16 09:57:05;;;;;;;0.70;0.40;;;10.60;99.90;;;;;;5011256;28;20049;-85
2022/11/16 09:59:44;;;;;;;0.70;0.30;;;10.60;99.90;;;;;;4997566;28;20056;-84
2022/11/16 10:02:28;;;;;;;0.43;0.30;;;10.60;99.90;;;;;;4997404;28;20106;-86
2022/11/16 10:05:13;;;;;;;0.43;0.22;;;10.60;99.90;;;;;;5011388;28;20044;-84
2022/11/16 10:07:51;;;;;;;1.05;0.40;;;10.60;99.90;;;;;;5048771;28;20614;-85
2022/11/16 10:10:28;;;;;;;2.20;0.70;;;10.60;99.90;;;;;;4998776;28;20049;-86
2022/11/16 10:13:03;;;;;;;0.77;0.50;;;10.50;99.90;;;;;;5014165;28;20511;-86
2022/11/16 10:15:32;;;;;;;0.73;0.30;;;10.50;99.90;;;;;;5013833;28;20049;-83
2022/11/16 10:18:15;;;;;;;1.38;0.45;;;10.50;99.90;;;;;;5028797;28;20148;-84
2022/11/16 10:20:56;;;;;;;1.25;0.40;;;10.50;99.90;;;;;;5029528;28;20140;-85
2022/11/16 10:23:36;;;;;;;0.20;0.20;;;10.50;99.90;;;;;;5027688;28;20156;-85
2022/11/16 10:26:09;;;;;;;0.45;0.30;;;10.50;99.90;;;;;;5022942;28;20049;-84
2022/11/16 10:28:44;;;;;;;2.13;0.88;;;10.50;99.90;;;;;;5026793;28;20059;-84
2022/11/16 10:31:33;;;;;;;1.17;0.40;;;10.60;99.90;;;;;;5012844;28;20053;-86
2022/11/16 10:34:00;;;;;;;0.38;0.30;;;10.60;99.90;;;;;;5022025;28;20065;-86
2022/11/16 10:36:27;;;;;;;0.75;0.20;;;10.60;99.90;;;;;;4997769;28;20541;-85
2022/11/16 10:38:55;;;;;;;0.52;0.30;;;10.70;99.90;;;;;;5002139;28;20060;-86
2022/11/16 10:41:29;;;;;;;1.10;0.40;;;10.80;99.90;;;;;;4998009;28;20063;-86
2022/11/16 10:43:57;;;;;;;0.30;0.30;;;10.80;99.90;;;;;;5014579;28;20075;-85
2022/11/16 10:46:36;;;;;;;0.22;0.22;;;10.90;99.90;;;;;;4997977;28;20498;-87
2022/11/16 10:49:10;;;;;;;1.20;0.63;;;10.90;99.90;;;;;;4997584;28;20091;-84
2022/11/16 10:51:37;;;;;;;0.80;0.30;;;10.90;99.90;;;;;;4996540;28;20045;-84
2022/11/16 10:54:13;;;;;;;0.50;0.40;;;10.90;99.90;;;;;;5010614;28;20057;-84
2022/11/16 10:56:44;;;;;;;0.30;0.30;;;10.90;99.90;;;;;;4994845;28;20056;-84
2022/11/16 10:59:12;;;;;;;0.40;0.30;;;11.10;99.90;;;;;;5005909;28;20052;-84
2022/11/16 11:01:49;;;;;;;0.45;0.30;;;11.20;99.90;;;;;;4990593;28;20060;-84
2022/11/16 11:04:19;;;;;;;0.47;0.30;;;11.30;99.90;;;;;;4995942;28;20098;-84
2022/11/16 11:06:50;;;;;;;0.40;0.30;;;11.50;99.90;;;;;;5026738;28;20511;-84
2022/11/16 11:09:24;;;;;;;1.65;0.40;;;11.60;99.90;;;;;;4994465;28;20045;-84
2022/11/16 11:12:38;;;;;;;0.20;0.20;;;11.70;99.90;;;;;;5010109;28;20089;-83
2022/11/16 11:15:11;;;;;;;0.80;0.50;;;11.60;99.90;;;;;;5011432;28;20041;-84
2022/11/16 11:17:42;;;;;;;1.33;0.50;;;11.60;99.90;;;;;;5026884;28;20137;-84
2022/11/16 11:20:15;;;;;;;0.50;0.40;;;11.60;99.90;;;;;;4993017;28;20103;-85
2022/11/16 11:22:53;;;;;;;1.88;1.00;;;11.60;99.90;;;;;;5040923;28;20044;-88
2022/11/16 11:25:27;;;;;;;2.47;0.60;;;11.60;99.90;;;;;;4986075;28;20304;-84
2022/11/16 11:28:42;;;;;;;0.75;0.68;;;11.50;99.90;;;;;;5022913;28;20057;-84
2022/11/16 11:31:33;;;;;;;2.78;0.40;;;11.50;99.90;;;;;;5008158;28;20067;-83
2022/11/16 11:34:22;;;;;;;0.40;0.40;;;11.50;99.90;;;;;;5013699;28;20045;-84
2022/11/16 11:37:13;;;;;;;0.98;0.50;;;11.50;99.90;;;;;;4990118;28;20053;-83
2022/11/16 11:39:39;;;;;;;0.73;0.40;;;11.70;99.90;;;;;;5026373;28;20344;-84
2022/11/16 11:42:12;;;;;;;0.25;0.20;;;11.90;99.90;;;;;;4973891;28;20060;-84
2022/11/16 11:44:48;;;;;;;0.30;0.30;;;12.20;99.90;;;;;;5030317;28;20049;-83
2022/11/16 11:47:45;;;;;;;0.50;0.50;;;12.40;99.90;;;;;;5017839;28;20579;-83
2022/11/16 11:50:44;;;;;;;0.68;0.40;;;12.60;99.90;;;;;;5010228;28;20461;-83
2022/11/16 11:53:44;;;;;;;0.30;0.30;;;12.90;99.90;;;;;;5007515;28;20061;-84
2022/11/16 11:56:11;;;;;;;0.43;0.40;;;13.10;99.90;;;;;;4996041;28;20059;-84
2022/11/16 11:58:38;;;;;;;0.40;0.30;;;13.30;99.90;;;;;;4983458;28;20719;-83
2022/11/16 12:01:15;;;;;;;2.35;0.95;;;13.40;99.90;;;;;;4981471;28;20421;-83
2022/11/16 12:04:11;;;;;;;0.50;0.35;;;13.50;99.90;;;;;;4995843;28;20853;-83
2022/11/16 12:07:11;;;;;;;1.52;0.45;;;13.60;99.90;;;;;;5017872;28;20053;-83
2022/11/16 12:09:59;;;;;;;0.80;0.57;;;13.70;99.90;;;;;;4999942;28;20519;-83
2022/11/16 12:12:46;;;;;;;0.50;0.30;;;14.00;99.90;;;;;;5000552;28;20144;-81
2022/11/16 12:15:22;;;;;;;0.75;0.30;;;14.10;99.90;;;;;;5000859;28;20192;-81
2022/11/16 12:18:11;;;;;;;0.50;0.30;;;14.30;99.90;;;;;;4981425;28;20065;-81
2022/11/16 12:21:03;;;;;;;0.45;0.30;;;14.30;99.90;;;;;;4983755;28;20133;-83
2022/11/16 12:23:30;;;;;;;0.80;0.40;;;14.50;99.90;;;;;;4982691;28;20049;-81
2022/11/16 12:26:12;;;;;;;0.55;0.30;;;14.70;99.90;;;;;;4999250;28;20069;-81
2022/11/16 12:29:15;;;;;;;0.68;0.50;;;14.70;99.90;;;;;;5005967;28;20148;-81
2022/11/16 12:31:45;;;;;;;1.70;0.60;;;14.80;99.90;;;;;;5003983;28;20049;-82
2022/11/16 12:34:25;;;;;;;0.40;0.40;;;14.80;99.90;;;;;;5018736;28;20337;-82
2022/11/16 12:36:59;;;;;;;0.80;0.50;;;14.90;99.90;;;;;;4995664;28;20045;-82
2022/11/16 12:40:05;;;;;;;0.85;0.57;;;15.10;99.90;;;;;;4986784;28;20579;-81
2022/11/16 12:42:51;;;;;;;2.40;0.60;;;15.30;99.90;;;;;;4990485;28;20487;-81
2022/11/16 12:45:31;;;;;;;0.70;0.50;;;15.10;99.90;;;;;;5001356;28;20049;-83
2022/11/16 12:48:05;;;;;;;1.02;0.60;;;14.90;99.90;;;;;;4983734;28;20080;-83
2022/11/16 12:50:52;;;;;;;0.50;0.40;;;15.00;99.90;;;;;;4988071;28;20573;-81
2022/11/16 12:53:31;;;;;;;0.75;0.50;;;15.10;99.90;;;;;;5011911;28;20282;-81
2022/11/16 12:56:04;;;;;;;0.60;0.32;;;15.30;99.90;;;;;;5003333;28;20129;-81
2022/11/16 12:58:54;;;;;;;0.82;0.40;;;15.50;99.90;;;;;;5002950;28;20068;-81
2022/11/16 13:01:34;;;;;;;1.35;0.45;;;15.50;99.90;;;;;;4989177;28;20471;-81
2022/11/16 13:04:11;;;;;;;0.70;0.32;;;15.30;99.90;;;;;;4987589;28;20081;-81
2022/11/16 13:06:42;;;;;;;1.00;0.40;;;15.10;99.90;;;;;;5003342;28;20533;-82
2022/11/16 13:09:15;;;;;;;0.98;0.40;;;14.90;99.90;;;;;;4985498;28;20492;-81
2022/11/16 13:11:44;;;;;;;0.88;0.63;;;14.60;99.90;;;;;;4986823;28;20370;-81
2022/11/16 13:14:19;;;;;;;1.75;0.80;;;14.50;99.90;;;;;;4967588;28;20338;-82
2022/11/16 13:16:46;;;;;;;0.98;0.60;;;14.30;99.90;;;;;;4983458;28;20128;-82
2022/11/16 13:19:14;;;;;;;0.85;0.52;;;14.30;99.90;;;;;;5002621;28;20152;-81
2022/11/16 13:22:18;;;;;;;1.85;0.70;;;14.20;99.90;;;;;;5001604;28;20059;-82
2022/11/16 13:25:05;;;;;;;1.52;0.65;;;14.10;99.90;;;;;;5013007;28;20393;-82
2022/11/16 13:27:38;;;;;;;1.55;0.70;;;13.90;99.90;;;;;;4968858;28;20479;-82
2022/11/16 13:30:14;;;;;;;1.33;0.88;;;13.70;99.90;;;;;;4982521;28;20045;-81
2022/11/16 13:32:51;;;;;;;0.65;0.45;;;13.60;99.90;;;;;;5000675;28;20061;-82
2022/11/16 13:35:19;;;;;;;1.75;0.70;;;13.70;99.90;;;;;;4986609;28;20081;-82
2022/11/16 13:37:47;;;;;;;1.25;0.63;;;13.90;99.90;;;;;;5003248;28;20050;-82
2022/11/16 13:40:24;;;;;;;1.15;0.50;;;14.00;99.90;;;;;;4999519;28;20057;-82
2022/11/16 13:42:59;;;;;;;1.45;0.68;;;14.10;99.90;;;;;;4980891;28;20061;-81
2022/11/16 13:45:29;;;;;;;0.77;0.50;;;14.10;99.90;;;;;;4966856;28;20467;-82
2022/11/16 13:47:57;;;;;;;1.33;0.82;;;14.10;99.90;;;;;;4973589;28;20065;-81
2022/11/16 13:50:32;;;;;;;1.00;0.52;;;14.00;99.90;;;;;;5000247;28;20049;-82
2022/11/16 13:53:09;;;;;;;0.65;0.47;;;13.90;99.90;;;;;;4978874;28;20052;-82
2022/11/16 13:56:00;;;;;;;0.77;0.77;;;13.70;99.90;;;;;;5003375;28;20054;-82
2022/11/16 13:58:28;;;;;;;1.08;0.52;;;13.60;99.90;;;;;;4986021;28;20364;-82
2022/11/16 14:01:03;;;;;;;1.20;0.50;;;13.50;99.90;;;;;;5001788;28;20406;-81
2022/11/16 14:03:37;;;;;;;1.13;0.65;;;13.50;99.90;;;;;;4980392;28;20492;-82